M I D A S
Marine Information and Data Acquisition System
Tripno 1744 of the Zeeleeuw from 2009-08-03 06:53:44 to 2009-08-03 07:55:47
Back to CruiseResearch ActivitiesStationsMapUnderway DataData graphs

EquipmentUnitsComment
TimeDGPSUTC
LatitudeDGPSDM.mWGS84
LongitudeDGPSDM.mWGS84
TemperatureSBE03/SBE38deg celciusITS90
ConductivitySBE21S/mITS90
SalinitySBE21 Practical Salinity Units
ChlorophylAChelsea fluorimeterg/lCalibrated in Aceton
Missing or incorrect values are displayed as -999
Sea surface data collected by the RV Zeeleeuw from 2009-08-03 06:53:03 to 2009-08-03 08:01:03
Time Latitude Longitude Temperature Conductivity Salinity ChlorophylA
2009-08-03 06:54:08 51°15.071 2°51.564 21.5659 2.273811 15.493782 6.556251
2009-08-03 06:55:08 51°15.116 2°51.258 21.5768 2.250664 15.324282 6.556251
2009-08-03 06:56:08 51°15.174 2°50.958 21.5785 2.219357 15.093981 6.556251
2009-08-03 06:57:08 51°15.231 2°50.656 21.5921 2.268541 15.462517 6.556251
2009-08-03 06:58:08 51°15.286 2°50.353 21.5829 2.222456 15.121484 6.521427
2009-08-03 06:59:07 51°15.342 2°50.057 21.6008 2.184848 14.844619 6.521427
2009-08-03 07:00:08 51°15.402 2°49.753 21.6138 2.251904 15.346257 6.521427
2009-08-03 07:01:08 51°15.46 2°49.455 21.6214 2.277738 15.541969 6.521427
2009-08-03 07:02:08 51°15.518 2°49.158 21.6251 2.203652 14.99199 6.521427
2009-08-03 07:03:08 51°15.574 2°48.863 21.6175 2.251388 15.350066 6.521427
2009-08-03 07:04:07 51°15.629 2°48.573 21.6446 2.237335 15.247917 6.521427
2009-08-03 07:05:08 51°15.686 2°48.272 21.6391 2.2207 15.127424 6.521427
2009-08-03 07:06:08 51°15.742 2°47.973 21.6578 2.233512 15.226202 6.521427
2009-08-03 07:07:08 51°15.798 2°47.673 21.6566 2.259035 15.41875 6.521427
2009-08-03 07:08:08 51°15.852 2°47.372 19.2391 4.488121 32.476116 10.630666
2009-08-03 07:09:07 51°15.908 2°47.078 18.825 4.637346 34.321194 6.486603
2009-08-03 07:10:08 51°15.966 2°46.775 18.7829 4.614918 34.377173 6.451779
2009-08-03 07:11:08 51°16.024 2°46.479 18.756 4.627796 34.533835 6.939316
2009-08-03 07:12:08 51°16.083 2°46.188 18.7308 4.622812 34.510507 7.496501
2009-08-03 07:13:08 51°16.163 2°45.915 18.7183 4.622085 34.523462 8.158158
2009-08-03 07:14:07 51°16.248 2°45.651 18.7167 4.624682 34.555718 8.924287
2009-08-03 07:15:08 51°16.331 2°45.376 18.7104 4.624786 34.562508 9.829713
2009-08-03 07:16:08 51°16.408 2°45.102 18.7311 4.623228 34.546172 10.769962
2009-08-03 07:17:08 51°16.487 2°44.828 18.7522 4.620631 34.509978 11.710211
2009-08-03 07:18:08 51°16.567 2°44.551 18.7635 4.625304 34.533332 12.545989
2009-08-03 07:19:08 51°16.645 2°44.274 18.7661 4.619073 34.47464 13.41659
2009-08-03 07:20:08 51°16.723 2°43.994 18.762 4.631535 34.576935 14.182719
2009-08-03 07:21:08 51°16.797 2°43.712 18.7697 4.609208 34.390825 14.914024
2009-08-03 07:22:08 51°16.881 2°43.438 18.7742 4.638078 34.626426 15.610505
2009-08-03 07:23:08 51°16.975 2°43.173 18.779 4.634651 34.593801 16.237338
2009-08-03 07:24:08 51°17.071 2°42.906 18.7657 4.626966 34.530823 16.759699
2009-08-03 07:25:07 51°17.165 2°42.646 18.7486 4.624162 34.517866 17.212412
2009-08-03 07:26:08 51°17.262 2°42.372 18.7296 4.628628 34.571005 17.560652
2009-08-03 07:27:08 51°17.358 2°42.103 18.7032 4.619385 34.512022 17.874069
2009-08-03 07:28:08 51°17.44 2°41.824 18.6611 4.615128 34.501327 18.048189
2009-08-03 07:29:08 51°17.497 2°41.526 18.621 4.62084 34.579492 18.291958
2009-08-03 07:30:08 51°17.543 2°41.221 18.5986 4.619179 34.597228 18.500902
2009-08-03 07:31:07 51°17.588 2°40.922 18.583 4.610456 34.541814 18.74467
2009-08-03 07:32:08 51°17.635 2°40.613 18.554 4.617934 34.619155 18.953615
2009-08-03 07:33:08 51°17.683 2°40.31 18.5303 4.613261 34.600393 19.127735
2009-08-03 07:34:08 51°17.735 2°40.01 18.5078 4.610042 34.592521 19.301855
2009-08-03 07:35:07 51°17.786 2°39.713 18.4863 4.607758 34.593833 19.406327
2009-08-03 07:36:08 51°17.842 2°39.41 18.4726 4.604331 34.580233 19.510799
2009-08-03 07:37:08 51°17.897 2°39.112 18.4553 4.604331 34.593491 19.510799
2009-08-03 07:38:08 51°17.952 2°38.814 18.4366 4.603189 34.599129 19.650096
2009-08-03 07:39:07 51°18.004 2°38.521 18.4302 4.596855 34.557705 19.719744
2009-08-03 07:40:08 51°18.056 2°38.216 18.4233 4.600386 34.595419 19.754568
2009-08-03 07:41:08 51°18.104 2°37.915 18.4102 4.600074 34.597442 19.754568
2009-08-03 07:42:08 51°18.124 2°37.602 18.4009 4.599348 34.603273 19.824216
2009-08-03 07:43:08 51°18.14 2°37.288 18.4035 4.59239 34.546607 19.893864
2009-08-03 07:44:07 51°18.155 2°36.981 18.4053 4.595921 34.575708 19.963512
2009-08-03 07:45:08 51°18.175 2°36.664 18.4044 4.597375 34.587966 19.998336
2009-08-03 07:46:08 51°18.196 2°36.354 18.4008 4.592702 34.549233 20.102808
2009-08-03 07:47:08 51°18.222 2°36.043 18.3959 4.595609 34.576402 20.137632
2009-08-03 07:48:08 51°18.247 2°35.731 18.388 4.599763 34.614088 20.207281
2009-08-03 07:49:07 51°18.272 2°35.424 18.3669 4.595817 34.590778 20.242105
2009-08-03 07:50:08 51°18.3 2°35.108 18.3435 4.594779 34.601303 20.311753
2009-08-03 07:51:08 51°18.327 2°34.796 18.3242 4.58751 34.557907 20.451049
2009-08-03 07:52:07 51°18.351 2°34.49 18.311 4.58803 34.578924 20.555521
2009-08-03 07:53:08 51°18.376 2°34.174 18.3017 4.587303 34.58477 20.590345
2009-08-03 07:54:08 51°18.402 2°33.864 18.2954 4.586576 34.584624 20.625169
2009-08-03 07:55:08 51°18.43 2°33.554 18.2894 4.586888 34.590588 20.659993
2009-08-03 07:56:07 51°18.455 2°33.252 18.2927 4.584292 34.572647 20.694817
2009-08-03 07:57:08 51°18.482 2°32.94 18.2975 4.582527 34.553734 20.729641
2009-08-03 07:58:08 51°18.506 2°32.633 18.3065 4.588549 34.601296 20.729641
2009-08-03 07:59:08 51°18.529 2°32.324 18.3142 4.589899 34.605372 20.799289
2009-08-03 08:00:08 51°18.554 2°32.016 18.3205 4.591145 34.610568 20.868938